sensor_id;sensor_type;location;lat;lon;timestamp;temperature;humidity
418;DHT22;49;48.530;9.200;2023-02-15T00:33:00;9.40;44.00
418;DHT22;49;48.530;9.200;2023-02-15T00:46:41;10.20;38.40
418;DHT22;49;48.530;9.200;2023-02-15T02:47:52;9.20;42.30
418;DHT22;49;48.530;9.200;2023-02-15T02:50:27;9.10;40.40
418;DHT22;49;48.530;9.200;2023-02-15T02:52:59;9.00;39.00
418;DHT22;49;48.530;9.200;2023-02-15T02:55:31;9.10;38.90
418;DHT22;49;48.530;9.200;2023-02-15T03:01:27;9.60;39.70
418;DHT22;49;48.530;9.200;2023-02-15T03:04:07;9.10;32.40
418;DHT22;49;48.530;9.200;2023-02-15T03:06:51;8.50;34.50
418;DHT22;49;48.530;9.200;2023-02-15T03:09:28;8.50;37.00
418;DHT22;49;48.530;9.200;2023-02-15T03:12:03;8.80;41.70
418;DHT22;49;48.530;9.200;2023-02-15T03:14:38;8.60;36.90
418;DHT22;49;48.530;9.200;2023-02-15T03:17:15;8.40;31.80
418;DHT22;49;48.530;9.200;2023-02-15T03:20:04;8.20;37.10
418;DHT22;49;48.530;9.200;2023-02-15T03:22:42;8.50;42.70
418;DHT22;49;48.530;9.200;2023-02-15T03:25:17;9.00;42.00
418;DHT22;49;48.530;9.200;2023-02-15T03:27:54;9.40;41.10
418;DHT22;49;48.530;9.200;2023-02-15T03:30:24;9.70;38.90
418;DHT22;49;48.530;9.200;2023-02-15T03:32:55;9.60;34.10
418;DHT22;49;48.530;9.200;2023-02-15T03:35:36;9.50;37.30
418;DHT22;49;48.530;9.200;2023-02-15T03:38:09;9.10;37.60
418;DHT22;49;48.530;9.200;2023-02-15T03:44:11;9.20;35.80
418;DHT22;49;48.530;9.200;2023-02-15T03:46:47;9.10;38.00
418;DHT22;49;48.530;9.200;2023-02-15T03:49:24;9.20;40.00
418;DHT22;49;48.530;9.200;2023-02-15T03:52:01;9.20;38.70
418;DHT22;49;48.530;9.200;2023-02-15T03:54:32;9.20;35.70
418;DHT22;49;48.530;9.200;2023-02-15T03:57:16;9.20;34.80
418;DHT22;49;48.530;9.200;2023-02-15T04:00:02;8.70;38.40
418;DHT22;49;48.530;9.200;2023-02-15T04:05:45;8.10;31.30
418;DHT22;49;48.530;9.200;2023-02-15T04:08:29;7.20;29.90
418;DHT22;49;48.530;9.200;2023-02-15T04:11:17;7.20;47.40
418;DHT22;49;48.530;9.200;2023-02-15T04:13:53;7.80;45.30
418;DHT22;49;48.530;9.200;2023-02-15T04:16:47;8.30;45.60
418;DHT22;49;48.530;9.200;2023-02-15T04:19:21;8.30;42.10
418;DHT22;49;48.530;9.200;2023-02-15T04:22:07;8.50;40.60
418;DHT22;49;48.530;9.200;2023-02-15T04:25:16;8.50;33.30
418;DHT22;49;48.530;9.200;2023-02-15T04:27:57;8.30;36.60
418;DHT22;49;48.530;9.200;2023-02-15T04:30:46;8.30;40.40
418;DHT22;49;48.530;9.200;2023-02-15T04:35:56;8.90;39.60
418;DHT22;49;48.530;9.200;2023-02-15T04:38:33;9.10;40.90
418;DHT22;49;48.530;9.200;2023-02-15T04:41:09;9.00;32.10
418;DHT22;49;48.530;9.200;2023-02-15T04:43:53;9.30;39.20
418;DHT22;49;48.530;9.200;2023-02-15T04:46:22;9.50;37.70
418;DHT22;49;48.530;9.200;2023-02-15T04:48:52;9.60;34.50
418;DHT22;49;48.530;9.200;2023-02-15T04:51:21;8.80;28.70
418;DHT22;49;48.530;9.200;2023-02-15T04:56:29;8.00;39.70
418;DHT22;49;48.530;9.200;2023-02-15T04:59:04;8.30;42.10
418;DHT22;49;48.530;9.200;2023-02-15T05:01:34;8.50;40.70
418;DHT22;49;48.530;9.200;2023-02-15T05:04:03;8.50;36.70
418;DHT22;49;48.530;9.200;2023-02-15T05:06:49;9.10;39.40
418;DHT22;49;48.530;9.200;2023-02-15T05:09:19;8.90;34.90
418;DHT22;49;48.530;9.200;2023-02-15T05:11:53;9.00;35.60
418;DHT22;49;48.530;9.200;2023-02-15T05:14:22;8.70;37.60
418;DHT22;49;48.530;9.200;2023-02-15T05:16:53;8.30;29.60
418;DHT22;49;48.530;9.200;2023-02-15T05:19:32;7.60;29.50
418;DHT22;49;48.530;9.200;2023-02-15T05:22:00;7.70;41.80
418;DHT22;49;48.530;9.200;2023-02-15T05:24:31;7.10;37.70
418;DHT22;49;48.530;9.200;2023-02-15T05:27:21;7.20;43.10
418;DHT22;49;48.530;9.200;2023-02-15T05:30:07;7.70;43.90
418;DHT22;49;48.530;9.200;2023-02-15T05:32:38;7.80;47.30
418;DHT22;49;48.530;9.200;2023-02-15T05:35:21;8.20;43.40
418;DHT22;49;48.530;9.200;2023-02-15T05:37:54;8.70;40.40
418;DHT22;49;48.530;9.200;2023-02-15T05:40:26;8.70;38.70
418;DHT22;49;48.530;9.200;2023-02-15T05:43:02;8.40;39.50
418;DHT22;49;48.530;9.200;2023-02-15T05:45:33;8.70;41.10
418;DHT22;49;48.530;9.200;2023-02-15T05:48:04;8.70;37.30
418;DHT22;49;48.530;9.200;2023-02-15T05:50:32;8.90;38.20
418;DHT22;49;48.530;9.200;2023-02-15T05:53:00;9.20;40.00
418;DHT22;49;48.530;9.200;2023-02-15T05:55:28;9.40;38.50
418;DHT22;49;48.530;9.200;2023-02-15T05:57:57;9.60;37.70
418;DHT22;49;48.530;9.200;2023-02-15T06:00:26;9.60;34.50
418;DHT22;49;48.530;9.200;2023-02-15T06:02:56;9.50;35.80
418;DHT22;49;48.530;9.200;2023-02-15T06:05:23;9.60;37.10
418;DHT22;49;48.530;9.200;2023-02-15T06:07:54;9.20;36.70
418;DHT22;49;48.530;9.200;2023-02-15T06:10:23;9.20;37.40
418;DHT22;49;48.530;9.200;2023-02-15T06:12:56;9.30;36.20
418;DHT22;49;48.530;9.200;2023-02-15T06:15:31;9.40;37.40
418;DHT22;49;48.530;9.200;2023-02-15T06:17:59;9.70;37.10
418;DHT22;49;48.530;9.200;2023-02-15T06:20:30;9.70;34.70
418;DHT22;49;48.530;9.200;2023-02-15T06:23:04;9.60;34.30
418;DHT22;49;48.530;9.200;2023-02-15T06:25:48;9.40;33.10
418;DHT22;49;48.530;9.200;2023-02-15T06:28:20;9.20;35.70
418;DHT22;49;48.530;9.200;2023-02-15T06:30:50;9.20;35.00
418;DHT22;49;48.530;9.200;2023-02-15T06:33:22;9.00;31.00
418;DHT22;49;48.530;9.200;2023-02-15T06:35:54;8.40;33.10
418;DHT22;49;48.530;9.200;2023-02-15T06:38:22;8.00;34.20
418;DHT22;49;48.530;9.200;2023-02-15T06:40:56;8.30;35.10
418;DHT22;49;48.530;9.200;2023-02-15T06:43:25;8.70;34.00
418;DHT22;49;48.530;9.200;2023-02-15T06:46:01;8.30;36.60
418;DHT22;49;48.530;9.200;2023-02-15T06:48:34;8.70;40.50
418;DHT22;49;48.530;9.200;2023-02-15T06:51:06;8.90;39.00
418;DHT22;49;48.530;9.200;2023-02-15T06:53:41;9.00;36.30
418;DHT22;49;48.530;9.200;2023-02-15T06:56:11;9.30;37.70
418;DHT22;49;48.530;9.200;2023-02-15T06:58:40;9.50;35.10
418;DHT22;49;48.530;9.200;2023-02-15T07:01:16;9.50;32.20
418;DHT22;49;48.530;9.200;2023-02-15T07:03:45;9.60;36.10
418;DHT22;49;48.530;9.200;2023-02-15T07:06:18;9.80;36.30
418;DHT22;49;48.530;9.200;2023-02-15T07:08:52;9.80;34.10
418;DHT22;49;48.530;9.200;2023-02-15T07:11:25;9.90;32.60
418;DHT22;49;48.530;9.200;2023-02-15T07:14:14;9.90;34.10
418;DHT22;49;48.530;9.200;2023-02-15T07:16:58;9.90;33.50
418;DHT22;49;48.530;9.200;2023-02-15T07:19:29;9.70;30.40
418;DHT22;49;48.530;9.200;2023-02-15T07:22:10;9.80;32.60
418;DHT22;49;48.530;9.200;2023-02-15T07:24:50;9.80;33.40
418;DHT22;49;48.530;9.200;2023-02-15T07:27:32;9.40;31.50
418;DHT22;49;48.530;9.200;2023-02-15T07:30:07;9.40;31.80
418;DHT22;49;48.530;9.200;2023-02-15T07:32:59;9.40;27.50
418;DHT22;49;48.530;9.200;2023-02-15T07:35:48;10.40;28.90
418;DHT22;49;48.530;9.200;2023-02-15T07:38:23;11.90;23.50
418;DHT22;49;48.530;9.200;2023-02-15T07:40:51;13.10;24.20
418;DHT22;49;48.530;9.200;2023-02-15T07:43:21;13.50;20.70
418;DHT22;49;48.530;9.200;2023-02-15T07:45:50;13.30;17.90
418;DHT22;49;48.530;9.200;2023-02-15T07:48:21;12.80;18.60
418;DHT22;49;48.530;9.200;2023-02-15T07:50:51;12.10;18.90
418;DHT22;49;48.530;9.200;2023-02-15T07:53:18;11.40;21.10
418;DHT22;49;48.530;9.200;2023-02-15T07:55:45;10.90;22.70
418;DHT22;49;48.530;9.200;2023-02-15T07:58:13;10.50;22.20
418;DHT22;49;48.530;9.200;2023-02-15T08:00:42;10.50;24.00
418;DHT22;49;48.530;9.200;2023-02-15T08:03:29;10.30;22.80
418;DHT22;49;48.530;9.200;2023-02-15T08:05:58;10.20;23.10
418;DHT22;49;48.530;9.200;2023-02-15T08:08:27;10.30;26.00
418;DHT22;49;48.530;9.200;2023-02-15T08:11:01;10.70;24.10
418;DHT22;49;48.530;9.200;2023-02-15T08:13:47;10.60;25.40
418;DHT22;49;48.530;9.200;2023-02-15T08:16:27;10.40;24.20
418;DHT22;49;48.530;9.200;2023-02-15T08:19:17;10.30;25.40
418;DHT22;49;48.530;9.200;2023-02-15T08:21:50;10.20;24.50
418;DHT22;49;48.530;9.200;2023-02-15T08:24:34;9.90;24.90
418;DHT22;49;48.530;9.200;2023-02-15T08:27:27;10.00;25.30
418;DHT22;49;48.530;9.200;2023-02-15T08:30:06;9.60;25.80
418;DHT22;49;48.530;9.200;2023-02-15T08:32:56;9.50;25.60
418;DHT22;49;48.530;9.200;2023-02-15T08:35:57;9.50;29.10
418;DHT22;49;48.530;9.200;2023-02-15T08:38:43;9.90;29.80
418;DHT22;49;48.530;9.200;2023-02-15T08:41:29;9.90;29.30
418;DHT22;49;48.530;9.200;2023-02-15T08:44:16;9.90;27.20
418;DHT22;49;48.530;9.200;2023-02-15T08:50:21;9.90;28.30
418;DHT22;49;48.530;9.200;2023-02-15T08:56:37;9.70;28.40
418;DHT22;49;48.530;9.200;2023-02-15T08:59:26;10.00;27.00
418;DHT22;49;48.530;9.200;2023-02-15T09:02:10;9.60;27.80
418;DHT22;49;48.530;9.200;2023-02-15T09:05:03;9.60;30.80
418;DHT22;49;48.530;9.200;2023-02-15T09:07:49;9.80;30.00
418;DHT22;49;48.530;9.200;2023-02-15T09:10:32;9.90;28.40
418;DHT22;49;48.530;9.200;2023-02-15T09:13:20;10.00;27.40
418;DHT22;49;48.530;9.200;2023-02-15T09:16:03;10.10;27.60
418;DHT22;49;48.530;9.200;2023-02-15T09:18:39;10.20;26.30
418;DHT22;49;48.530;9.200;2023-02-15T09:21:22;10.20;27.20
418;DHT22;49;48.530;9.200;2023-02-15T09:24:16;9.90;28.20
418;DHT22;49;48.530;9.200;2023-02-15T09:26:47;9.70;28.20
418;DHT22;49;48.530;9.200;2023-02-15T09:29:34;10.00;27.50
418;DHT22;49;48.530;9.200;2023-02-15T09:32:05;10.20;27.10
418;DHT22;49;48.530;9.200;2023-02-15T09:34:46;10.50;26.70
418;DHT22;49;48.530;9.200;2023-02-15T09:37:14;10.60;26.10
418;DHT22;49;48.530;9.200;2023-02-15T09:39:44;10.70;26.10
418;DHT22;49;48.530;9.200;2023-02-15T09:42:48;11.10;29.20
418;DHT22;49;48.530;9.200;2023-02-15T09:45:32;11.40;24.60
418;DHT22;49;48.530;9.200;2023-02-15T09:51:31;11.10;23.70
418;DHT22;49;48.530;9.200;2023-02-15T09:54:18;11.00;23.60
418;DHT22;49;48.530;9.200;2023-02-15T09:56:52;10.80;23.20
418;DHT22;49;48.530;9.200;2023-02-15T09:59:28;11.20;21.90
418;DHT22;49;48.530;9.200;2023-02-15T10:02:13;11.30;21.60
418;DHT22;49;48.530;9.200;2023-02-15T10:04:54;11.50;24.00
418;DHT22;49;48.530;9.200;2023-02-15T10:07:38;11.50;20.80
418;DHT22;49;48.530;9.200;2023-02-15T10:10:19;11.60;24.00
418;DHT22;49;48.530;9.200;2023-02-15T10:13:01;11.80;22.60
418;DHT22;49;48.530;9.200;2023-02-15T10:15:40;11.70;20.10
418;DHT22;49;48.530;9.200;2023-02-15T10:18:35;12.00;20.60
418;DHT22;49;48.530;9.200;2023-02-15T10:21:14;12.20;19.40
418;DHT22;49;48.530;9.200;2023-02-15T10:23:56;11.90;19.30
418;DHT22;49;48.530;9.200;2023-02-15T10:26:36;11.80;19.70
418;DHT22;49;48.530;9.200;2023-02-15T10:29:10;11.30;20.70
418;DHT22;49;48.530;9.200;2023-02-15T10:31:48;11.40;21.80
418;DHT22;49;48.530;9.200;2023-02-15T10:34:25;11.20;21.30
418;DHT22;49;48.530;9.200;2023-02-15T10:37:12;11.60;20.40
418;DHT22;49;48.530;9.200;2023-02-15T10:39:56;11.80;20.00
418;DHT22;49;48.530;9.200;2023-02-15T10:42:40;12.10;19.90
418;DHT22;49;48.530;9.200;2023-02-15T10:45:18;12.20;19.40
418;DHT22;49;48.530;9.200;2023-02-15T10:48:09;12.50;18.80
418;DHT22;49;48.530;9.200;2023-02-15T10:50:48;12.50;18.10
418;DHT22;49;48.530;9.200;2023-02-15T10:56:25;12.70;18.40
418;DHT22;49;48.530;9.200;2023-02-15T11:02:19;13.30;17.50
418;DHT22;49;48.530;9.200;2023-02-15T11:05:02;13.50;17.10
418;DHT22;49;48.530;9.200;2023-02-15T11:07:43;13.10;17.50
418;DHT22;49;48.530;9.200;2023-02-15T11:10:26;12.60;18.10
418;DHT22;49;48.530;9.200;2023-02-15T11:13:02;12.80;18.00
418;DHT22;49;48.530;9.200;2023-02-15T11:15:47;12.90;18.60
418;DHT22;49;48.530;9.200;2023-02-15T11:18:21;13.40;17.40
418;DHT22;49;48.530;9.200;2023-02-15T11:20:56;13.70;17.10
418;DHT22;49;48.530;9.200;2023-02-15T11:23:49;13.80;16.50
418;DHT22;49;48.530;9.200;2023-02-15T11:26:46;13.70;16.50
418;DHT22;49;48.530;9.200;2023-02-15T11:29:26;13.20;17.60
418;DHT22;49;48.530;9.200;2023-02-15T11:32:12;13.10;17.80
418;DHT22;49;48.530;9.200;2023-02-15T11:34:59;13.10;18.80
418;DHT22;49;48.530;9.200;2023-02-15T11:37:47;13.40;18.20
418;DHT22;49;48.530;9.200;2023-02-15T11:40:36;14.00;17.30
418;DHT22;49;48.530;9.200;2023-02-15T11:43:15;14.30;17.20
418;DHT22;49;48.530;9.200;2023-02-15T11:45:59;13.90;17.40
418;DHT22;49;48.530;9.200;2023-02-15T11:48:38;13.80;17.90
418;DHT22;49;48.530;9.200;2023-02-15T11:51:14;13.90;17.30
418;DHT22;49;48.530;9.200;2023-02-15T11:53:48;14.30;16.90
418;DHT22;49;48.530;9.200;2023-02-15T11:56:44;14.40;16.90
418;DHT22;49;48.530;9.200;2023-02-15T11:59:46;14.30;16.80
418;DHT22;49;48.530;9.200;2023-02-15T12:02:28;14.40;16.70
418;DHT22;49;48.530;9.200;2023-02-15T12:05:09;14.20;16.60
418;DHT22;49;48.530;9.200;2023-02-15T12:07:55;14.60;16.00
418;DHT22;49;48.530;9.200;2023-02-15T12:10:30;14.40;15.70
418;DHT22;49;48.530;9.200;2023-02-15T12:13:20;14.20;15.50
418;DHT22;49;48.530;9.200;2023-02-15T12:15:56;14.40;15.40
418;DHT22;49;48.530;9.200;2023-02-15T12:18:40;14.90;14.40
418;DHT22;49;48.530;9.200;2023-02-15T12:21:26;15.30;14.00
418;DHT22;49;48.530;9.200;2023-02-15T12:23:58;15.20;14.40
418;DHT22;49;48.530;9.200;2023-02-15T12:26:42;15.10;14.60
418;DHT22;49;48.530;9.200;2023-02-15T12:29:31;14.80;14.40
418;DHT22;49;48.530;9.200;2023-02-15T12:32:10;15.20;14.30
418;DHT22;49;48.530;9.200;2023-02-15T12:34:41;15.40;13.70
418;DHT22;49;48.530;9.200;2023-02-15T12:37:25;15.30;13.40
418;DHT22;49;48.530;9.200;2023-02-15T12:39:59;15.40;13.40
418;DHT22;49;48.530;9.200;2023-02-15T12:42:41;15.40;13.00
418;DHT22;49;48.530;9.200;2023-02-15T12:45:24;15.20;13.20
418;DHT22;49;48.530;9.200;2023-02-15T12:48:15;15.30;13.50
418;DHT22;49;48.530;9.200;2023-02-15T12:50:52;15.80;12.30
418;DHT22;49;48.530;9.200;2023-02-15T12:53:49;16.30;11.90
418;DHT22;49;48.530;9.200;2023-02-15T12:56:26;15.80;12.20
418;DHT22;49;48.530;9.200;2023-02-15T12:59:06;15.20;12.90
418;DHT22;49;48.530;9.200;2023-02-15T13:04:18;15.80;11.90
418;DHT22;49;48.530;9.200;2023-02-15T13:06:58;14.90;12.40
418;DHT22;49;48.530;9.200;2023-02-15T13:12:35;14.60;12.80
418;DHT22;49;48.530;9.200;2023-02-15T13:15:25;14.50;12.60
418;DHT22;49;48.530;9.200;2023-02-15T13:18:13;14.40;13.60
418;DHT22;49;48.530;9.200;2023-02-15T13:21:04;14.70;14.60
418;DHT22;49;48.530;9.200;2023-02-15T13:23:49;14.80;14.40
418;DHT22;49;48.530;9.200;2023-02-15T13:26:35;14.60;15.80
418;DHT22;49;48.530;9.200;2023-02-15T13:29:17;14.40;16.10
418;DHT22;49;48.530;9.200;2023-02-15T13:31:51;14.10;17.20
418;DHT22;49;48.530;9.200;2023-02-15T13:34:34;13.80;18.00
418;DHT22;49;48.530;9.200;2023-02-15T13:37:21;14.20;18.40
418;DHT22;49;48.530;9.200;2023-02-15T13:40:15;14.60;18.00
418;DHT22;49;48.530;9.200;2023-02-15T13:43:00;14.80;17.70
418;DHT22;49;48.530;9.200;2023-02-15T13:45:42;14.50;16.40
418;DHT22;49;48.530;9.200;2023-02-15T13:48:43;13.90;17.60
418;DHT22;49;48.530;9.200;2023-02-15T13:51:30;14.20;17.00
418;DHT22;49;48.530;9.200;2023-02-15T13:54:31;14.20;17.30
418;DHT22;49;48.530;9.200;2023-02-15T13:57:23;14.30;17.10
418;DHT22;49;48.530;9.200;2023-02-15T14:00:11;14.80;16.70
418;DHT22;49;48.530;9.200;2023-02-15T14:03:09;14.50;16.00
418;DHT22;49;48.530;9.200;2023-02-15T14:06:28;14.90;14.40
418;DHT22;49;48.530;9.200;2023-02-15T14:09:29;14.90;14.40
418;DHT22;49;48.530;9.200;2023-02-15T14:12:31;15.00;14.50
418;DHT22;49;48.530;9.200;2023-02-15T14:15:26;15.20;14.50
418;DHT22;49;48.530;9.200;2023-02-15T14:18:12;14.30;15.50
418;DHT22;49;48.530;9.200;2023-02-15T14:21:06;14.40;15.10
418;DHT22;49;48.530;9.200;2023-02-15T14:23:54;14.20;15.80
418;DHT22;49;48.530;9.200;2023-02-15T14:26:48;14.30;16.00
418;DHT22;49;48.530;9.200;2023-02-15T14:29:48;14.70;15.50
418;DHT22;49;48.530;9.200;2023-02-15T14:32:26;15.30;14.70
418;DHT22;49;48.530;9.200;2023-02-15T14:35:15;15.50;14.90
418;DHT22;49;48.530;9.200;2023-02-15T14:38:04;14.70;15.50
418;DHT22;49;48.530;9.200;2023-02-15T14:40:54;14.40;16.40
418;DHT22;49;48.530;9.200;2023-02-15T14:59:49;15.30;14.70
418;DHT22;49;48.530;9.200;2023-02-15T15:02:45;15.00;14.50
418;DHT22;49;48.530;9.200;2023-02-15T15:05:32;14.60;14.20
418;DHT22;49;48.530;9.200;2023-02-15T15:08:25;14.50;14.20
418;DHT22;49;48.530;9.200;2023-02-15T15:11:47;14.30;14.10
418;DHT22;49;48.530;9.200;2023-02-15T15:24:54;14.40;14.10
418;DHT22;49;48.530;9.200;2023-02-15T15:27:47;15.00;13.70
418;DHT22;49;48.530;9.200;2023-02-15T15:42:22;14.90;13.50
418;DHT22;49;48.530;9.200;2023-02-15T15:45:21;15.00;13.50
418;DHT22;49;48.530;9.200;2023-02-15T15:48:28;15.10;12.90
418;DHT22;49;48.530;9.200;2023-02-15T15:50:58;15.00;13.50
418;DHT22;49;48.530;9.200;2023-02-15T15:53:31;14.90;13.30
418;DHT22;49;48.530;9.200;2023-02-15T16:05:39;14.50;13.60
418;DHT22;49;48.530;9.200;2023-02-15T16:08:52;14.40;14.20
418;DHT22;49;48.530;9.200;2023-02-15T16:11:39;14.60;14.20
418;DHT22;49;48.530;9.200;2023-02-15T16:14:21;14.40;14.10
418;DHT22;49;48.530;9.200;2023-02-15T16:17:01;14.40;14.10
418;DHT22;49;48.530;9.200;2023-02-15T16:19:46;14.10;13.90
418;DHT22;49;48.530;9.200;2023-02-15T16:25:39;14.10;14.50
418;DHT22;49;48.530;9.200;2023-02-15T16:28:18;14.30;14.40
418;DHT22;49;48.530;9.200;2023-02-15T16:31:11;14.00;14.40
418;DHT22;49;48.530;9.200;2023-02-15T16:33:54;14.00;14.60
418;DHT22;49;48.530;9.200;2023-02-15T16:36:24;14.00;14.30
418;DHT22;49;48.530;9.200;2023-02-15T16:39:16;14.20;14.10
418;DHT22;49;48.530;9.200;2023-02-15T16:45:23;13.60;14.70
418;DHT22;49;48.530;9.200;2023-02-15T16:48:08;13.60;14.90
418;DHT22;49;48.530;9.200;2023-02-15T16:50:59;13.80;14.80
418;DHT22;49;48.530;9.200;2023-02-15T16:53:28;13.80;14.60
418;DHT22;49;48.530;9.200;2023-02-15T16:55:59;13.70;14.90
418;DHT22;49;48.530;9.200;2023-02-15T16:58:43;14.00;14.10
418;DHT22;49;48.530;9.200;2023-02-15T17:01:34;14.10;14.30
418;DHT22;49;48.530;9.200;2023-02-15T17:04:23;13.70;14.60
418;DHT22;49;48.530;9.200;2023-02-15T17:07:20;13.30;16.00
418;DHT22;49;48.530;9.200;2023-02-15T17:10:02;13.70;15.10
418;DHT22;49;48.530;9.200;2023-02-15T17:13:13;13.70;14.90
418;DHT22;49;48.530;9.200;2023-02-15T17:16:22;13.20;15.40
418;DHT22;49;48.530;9.200;2023-02-15T17:19:16;13.30;16.10
418;DHT22;49;48.530;9.200;2023-02-15T17:21:52;13.50;15.30
418;DHT22;49;48.530;9.200;2023-02-15T17:24:41;13.80;14.90
418;DHT22;49;48.530;9.200;2023-02-15T17:27:24;14.00;14.50
418;DHT22;49;48.530;9.200;2023-02-15T17:30:03;14.10;14.20
418;DHT22;49;48.530;9.200;2023-02-15T17:32:38;14.20;14.00
418;DHT22;49;48.530;9.200;2023-02-15T17:35:44;14.10;14.20
418;DHT22;49;48.530;9.200;2023-02-15T17:38:35;14.10;14.50
418;DHT22;49;48.530;9.200;2023-02-15T17:41:06;14.10;14.80
418;DHT22;49;48.530;9.200;2023-02-15T17:43:35;14.00;15.00
418;DHT22;49;48.530;9.200;2023-02-15T17:46:11;13.90;15.70
418;DHT22;49;48.530;9.200;2023-02-15T17:48:59;13.70;15.50
418;DHT22;49;48.530;9.200;2023-02-15T17:51:37;13.70;16.00
418;DHT22;49;48.530;9.200;2023-02-15T17:54:13;13.50;16.40
418;DHT22;49;48.530;9.200;2023-02-15T17:57:00;13.40;16.70
418;DHT22;49;48.530;9.200;2023-02-15T17:59:36;13.10;17.70
418;DHT22;49;48.530;9.200;2023-02-15T18:02:21;13.30;20.60
418;DHT22;49;48.530;9.200;2023-02-15T18:05:11;13.20;20.50
418;DHT22;49;48.530;9.200;2023-02-15T18:07:58;13.20;18.20
418;DHT22;49;48.530;9.200;2023-02-15T18:10:43;12.90;16.50
418;DHT22;49;48.530;9.200;2023-02-15T18:13:31;12.60;16.90
418;DHT22;49;48.530;9.200;2023-02-15T18:18:44;12.30;17.60
418;DHT22;49;48.530;9.200;2023-02-15T18:26:27;12.00;20.50
418;DHT22;49;48.530;9.200;2023-02-15T18:28:55;11.90;18.40
418;DHT22;49;48.530;9.200;2023-02-15T18:31:38;11.70;18.30
418;DHT22;49;48.530;9.200;2023-02-15T18:34:19;11.40;19.10
418;DHT22;49;48.530;9.200;2023-02-15T18:36:49;11.20;20.10
418;DHT22;49;48.530;9.200;2023-02-15T18:39:30;11.00;20.90
418;DHT22;49;48.530;9.200;2023-02-15T18:42:33;11.00;20.60
418;DHT22;49;48.530;9.200;2023-02-15T18:45:16;10.80;21.10
418;DHT22;49;48.530;9.200;2023-02-15T18:47:57;10.80;21.80
418;DHT22;49;48.530;9.200;2023-02-15T18:50:32;10.80;22.20
418;DHT22;49;48.530;9.200;2023-02-15T18:53:10;11.10;27.70
418;DHT22;49;48.530;9.200;2023-02-15T18:55:55;11.60;23.40
418;DHT22;49;48.530;9.200;2023-02-15T18:58:44;11.20;21.30
418;DHT22;49;48.530;9.200;2023-02-15T19:01:21;11.00;20.80
418;DHT22;49;48.530;9.200;2023-02-15T19:03:57;10.90;21.10
418;DHT22;49;48.530;9.200;2023-02-15T19:06:45;10.80;21.50
418;DHT22;49;48.530;9.200;2023-02-15T19:09:30;11.10;28.90
418;DHT22;49;48.530;9.200;2023-02-15T19:12:00;11.40;25.00
418;DHT22;49;48.530;9.200;2023-02-15T19:14:32;11.30;21.20
418;DHT22;49;48.530;9.200;2023-02-15T19:17:13;11.00;20.90
418;DHT22;49;48.530;9.200;2023-02-15T19:19:43;10.40;21.50
418;DHT22;49;48.530;9.200;2023-02-15T19:22:13;10.60;29.00
418;DHT22;49;48.530;9.200;2023-02-15T19:24:43;11.30;30.90
418;DHT22;49;48.530;9.200;2023-02-15T19:27:19;11.40;26.20
418;DHT22;49;48.530;9.200;2023-02-15T19:29:53;11.30;23.60
418;DHT22;49;48.530;9.200;2023-02-15T19:32:22;10.90;20.70
418;DHT22;49;48.530;9.200;2023-02-15T19:34:52;10.50;20.80
418;DHT22;49;48.530;9.200;2023-02-15T19:37:31;10.50;20.70
418;DHT22;49;48.530;9.200;2023-02-15T19:40:10;10.50;20.80
418;DHT22;49;48.530;9.200;2023-02-15T19:42:42;10.30;25.20
418;DHT22;49;48.530;9.200;2023-02-15T19:45:20;10.40;22.20
418;DHT22;49;48.530;9.200;2023-02-15T19:47:48;9.90;23.30
418;DHT22;49;48.530;9.200;2023-02-15T19:50:17;9.80;23.50
418;DHT22;49;48.530;9.200;2023-02-15T19:52:51;9.50;24.20
418;DHT22;49;48.530;9.200;2023-02-15T19:55:31;9.30;24.60
418;DHT22;49;48.530;9.200;2023-02-15T19:58:01;9.40;25.50
418;DHT22;49;48.530;9.200;2023-02-15T20:10:24;9.80;26.50
418;DHT22;49;48.530;9.200;2023-02-15T20:13:08;9.40;26.20
418;DHT22;49;48.530;9.200;2023-02-15T20:15:51;9.20;26.50
418;DHT22;49;48.530;9.200;2023-02-15T20:18:33;9.60;26.60
418;DHT22;49;48.530;9.200;2023-02-15T20:21:02;9.40;26.20
418;DHT22;49;48.530;9.200;2023-02-15T20:23:44;9.30;25.90
418;DHT22;49;48.530;9.200;2023-02-15T20:26:41;9.30;26.00
418;DHT22;49;48.530;9.200;2023-02-15T20:29:25;8.90;26.70
418;DHT22;49;48.530;9.200;2023-02-15T20:31:53;9.10;38.00
418;DHT22;49;48.530;9.200;2023-02-15T20:34:30;9.40;29.20
418;DHT22;49;48.530;9.200;2023-02-15T20:37:18;9.00;27.80
418;DHT22;49;48.530;9.200;2023-02-15T20:40:01;9.50;29.10
418;DHT22;49;48.530;9.200;2023-02-15T20:46:14;10.00;27.20
418;DHT22;49;48.530;9.200;2023-02-15T20:48:46;10.20;31.40
418;DHT22;49;48.530;9.200;2023-02-15T20:51:30;10.10;26.70
418;DHT22;49;48.530;9.200;2023-02-15T20:54:17;9.90;32.10
418;DHT22;49;48.530;9.200;2023-02-15T20:57:11;10.10;28.80
418;DHT22;49;48.530;9.200;2023-02-15T20:59:41;10.40;29.30
418;DHT22;49;48.530;9.200;2023-02-15T21:02:20;10.70;32.70
418;DHT22;49;48.530;9.200;2023-02-15T21:04:49;10.50;27.00
418;DHT22;49;48.530;9.200;2023-02-15T21:07:20;10.50;27.90
418;DHT22;49;48.530;9.200;2023-02-15T21:10:01;10.30;26.60
418;DHT22;49;48.530;9.200;2023-02-15T21:12:43;10.10;25.40
418;DHT22;49;48.530;9.200;2023-02-15T21:15:27;10.00;28.30
418;DHT22;49;48.530;9.200;2023-02-15T21:18:19;10.00;28.30
418;DHT22;49;48.530;9.200;2023-02-15T21:21:03;9.90;29.30
418;DHT22;49;48.530;9.200;2023-02-15T21:23:36;9.70;26.20
418;DHT22;49;48.530;9.200;2023-02-15T21:26:05;9.20;25.90
418;DHT22;49;48.530;9.200;2023-02-15T21:28:49;9.20;26.10
418;DHT22;49;48.530;9.200;2023-02-15T21:31:22;8.70;27.20
418;DHT22;49;48.530;9.200;2023-02-15T21:33:59;8.50;28.00
418;DHT22;49;48.530;9.200;2023-02-15T21:36:28;8.30;28.40
418;DHT22;49;48.530;9.200;2023-02-15T21:39:00;8.80;35.70
418;DHT22;49;48.530;9.200;2023-02-15T21:41:27;9.70;38.60
418;DHT22;49;48.530;9.200;2023-02-15T21:44:35;10.00;29.20
418;DHT22;49;48.530;9.200;2023-02-15T21:47:24;9.60;34.00
418;DHT22;49;48.530;9.200;2023-02-15T21:56:36;9.00;27.20
418;DHT22;49;48.530;9.200;2023-02-15T21:59:09;8.90;28.70
418;DHT22;49;48.530;9.200;2023-02-15T22:01:50;9.60;36.60
418;DHT22;49;48.530;9.200;2023-02-15T22:04:29;10.00;34.50
418;DHT22;49;48.530;9.200;2023-02-15T22:06:56;10.30;34.10
418;DHT22;49;48.530;9.200;2023-02-15T22:09:25;10.00;25.10
418;DHT22;49;48.530;9.200;2023-02-15T22:12:14;9.50;26.60
418;DHT22;49;48.530;9.200;2023-02-15T22:14:49;9.60;26.20
418;DHT22;49;48.530;9.200;2023-02-15T22:17:34;9.10;26.70
418;DHT22;49;48.530;9.200;2023-02-15T22:20:12;8.80;34.00
418;DHT22;49;48.530;9.200;2023-02-15T22:22:41;9.10;38.60
418;DHT22;49;48.530;9.200;2023-02-15T22:25:11;8.90;28.70
418;DHT22;49;48.530;9.200;2023-02-15T22:27:42;8.80;28.80
418;DHT22;49;48.530;9.200;2023-02-15T22:30:21;8.60;29.80
418;DHT22;49;48.530;9.200;2023-02-15T22:32:55;9.00;39.10
418;DHT22;49;48.530;9.200;2023-02-15T22:35:32;9.20;34.30
418;DHT22;49;48.530;9.200;2023-02-15T22:38:03;9.50;39.40
418;DHT22;49;48.530;9.200;2023-02-15T22:40:45;9.60;40.30
418;DHT22;49;48.530;9.200;2023-02-15T22:43:29;9.60;37.20
418;DHT22;49;48.530;9.200;2023-02-15T22:46:05;10.00;28.70
418;DHT22;49;48.530;9.200;2023-02-15T22:48:35;10.00;35.40
418;DHT22;49;48.530;9.200;2023-02-15T22:51:12;10.20;35.60
418;DHT22;49;48.530;9.200;2023-02-15T22:53:43;10.50;27.90
418;DHT22;49;48.530;9.200;2023-02-15T22:56:20;10.10;31.00
418;DHT22;49;48.530;9.200;2023-02-15T22:58:58;9.90;28.80
418;DHT22;49;48.530;9.200;2023-02-15T23:01:30;9.70;28.90
418;DHT22;49;48.530;9.200;2023-02-15T23:04:02;9.50;27.90
418;DHT22;49;48.530;9.200;2023-02-15T23:06:34;8.50;29.70
418;DHT22;49;48.530;9.200;2023-02-15T23:09:02;8.00;33.80